sensor_id;sensor_type;location;lat;lon;timestamp;temperature;humidity
27016;DHT22;14557;0.000;0.000;2024-03-02T00:00:00;21.00;63.60
27016;DHT22;14557;0.000;0.000;2024-03-02T00:02:25;21.00;63.10
27016;DHT22;14557;0.000;0.000;2024-03-02T00:04:51;21.00;63.10
27016;DHT22;14557;0.000;0.000;2024-03-02T00:07:17;21.00;63.20
27016;DHT22;14557;0.000;0.000;2024-03-02T00:09:42;20.90;64.30
27016;DHT22;14557;0.000;0.000;2024-03-02T00:12:10;21.00;63.40
27016;DHT22;14557;0.000;0.000;2024-03-02T00:14:37;21.00;63.20
27016;DHT22;14557;0.000;0.000;2024-03-02T00:17:02;20.90;62.90
27016;DHT22;14557;0.000;0.000;2024-03-02T00:19:28;20.90;62.70
27016;DHT22;14557;0.000;0.000;2024-03-02T00:21:54;20.90;62.80
27016;DHT22;14557;0.000;0.000;2024-03-02T00:24:33;20.90;62.80
27016;DHT22;14557;0.000;0.000;2024-03-02T00:26:59;20.90;63.20
27016;DHT22;14557;0.000;0.000;2024-03-02T00:29:24;20.90;62.60
27016;DHT22;14557;0.000;0.000;2024-03-02T00:31:51;20.80;62.50
27016;DHT22;14557;0.000;0.000;2024-03-02T00:34:17;20.80;62.50
27016;DHT22;14557;0.000;0.000;2024-03-02T00:36:43;20.80;62.10
27016;DHT22;14557;0.000;0.000;2024-03-02T00:39:10;20.80;62.80
27016;DHT22;14557;0.000;0.000;2024-03-02T00:41:38;20.80;63.20
27016;DHT22;14557;0.000;0.000;2024-03-02T00:44:06;20.80;62.40
27016;DHT22;14557;0.000;0.000;2024-03-02T00:46:39;20.80;63.20
27016;DHT22;14557;0.000;0.000;2024-03-02T00:49:26;20.70;63.20
27016;DHT22;14557;0.000;0.000;2024-03-02T00:51:52;20.70;62.70
27016;DHT22;14557;0.000;0.000;2024-03-02T00:54:21;20.70;62.50
27016;DHT22;14557;0.000;0.000;2024-03-02T00:56:48;20.70;62.50
27016;DHT22;14557;0.000;0.000;2024-03-02T00:59:14;20.70;62.20
27016;DHT22;14557;0.000;0.000;2024-03-02T01:01:40;20.70;62.20
27016;DHT22;14557;0.000;0.000;2024-03-02T01:04:06;20.60;62.20
27016;DHT22;14557;0.000;0.000;2024-03-02T01:06:31;20.60;62.10
27016;DHT22;14557;0.000;0.000;2024-03-02T01:08:57;20.60;62.40
27016;DHT22;14557;0.000;0.000;2024-03-02T01:11:22;20.80;62.40
27016;DHT22;14557;0.000;0.000;2024-03-02T01:13:48;20.60;63.20
27016;DHT22;14557;0.000;0.000;2024-03-02T01:16:14;20.60;63.20
27016;DHT22;14557;0.000;0.000;2024-03-02T01:18:41;20.60;63.30
27016;DHT22;14557;0.000;0.000;2024-03-02T01:21:06;20.60;63.40
27016;DHT22;14557;0.000;0.000;2024-03-02T01:23:32;20.60;63.20
27016;DHT22;14557;0.000;0.000;2024-03-02T01:25:58;20.60;63.20
27016;DHT22;14557;0.000;0.000;2024-03-02T01:28:23;20.50;63.70
27016;DHT22;14557;0.000;0.000;2024-03-02T01:30:49;20.50;63.10
27016;DHT22;14557;0.000;0.000;2024-03-02T01:33:15;20.50;63.10
27016;DHT22;14557;0.000;0.000;2024-03-02T01:35:41;20.50;63.10
27016;DHT22;14557;0.000;0.000;2024-03-02T01:38:06;20.50;63.10
27016;DHT22;14557;0.000;0.000;2024-03-02T01:40:33;20.50;63.10
27016;DHT22;14557;0.000;0.000;2024-03-02T01:42:59;20.40;63.00
27016;DHT22;14557;0.000;0.000;2024-03-02T01:45:24;20.40;63.00
27016;DHT22;14557;0.000;0.000;2024-03-02T01:47:50;20.40;63.00
27016;DHT22;14557;0.000;0.000;2024-03-02T01:50:16;20.40;63.00
27016;DHT22;14557;0.000;0.000;2024-03-02T01:52:42;20.40;63.00
27016;DHT22;14557;0.000;0.000;2024-03-02T01:55:09;20.40;63.00
27016;DHT22;14557;0.000;0.000;2024-03-02T01:57:35;20.40;63.00
27016;DHT22;14557;0.000;0.000;2024-03-02T02:00:00;20.40;63.00
27016;DHT22;14557;0.000;0.000;2024-03-02T02:02:26;20.30;62.90
27016;DHT22;14557;0.000;0.000;2024-03-02T02:04:52;20.30;62.70
27016;DHT22;14557;0.000;0.000;2024-03-02T02:07:17;20.30;62.70
27016;DHT22;14557;0.000;0.000;2024-03-02T02:09:43;20.30;63.00
27016;DHT22;14557;0.000;0.000;2024-03-02T02:12:09;20.30;62.90
27016;DHT22;14557;0.000;0.000;2024-03-02T02:14:35;20.30;62.90
27016;DHT22;14557;0.000;0.000;2024-03-02T02:17:01;20.30;62.90
27016;DHT22;14557;0.000;0.000;2024-03-02T02:19:26;20.30;62.90
27016;DHT22;14557;0.000;0.000;2024-03-02T02:21:52;20.30;62.90
27016;DHT22;14557;0.000;0.000;2024-03-02T02:24:18;20.30;62.90
27016;DHT22;14557;0.000;0.000;2024-03-02T02:26:43;20.30;63.00
27016;DHT22;14557;0.000;0.000;2024-03-02T02:29:09;20.20;62.80
27016;DHT22;14557;0.000;0.000;2024-03-02T02:31:38;20.30;62.90
27016;DHT22;14557;0.000;0.000;2024-03-02T02:34:04;20.20;62.90
27016;DHT22;14557;0.000;0.000;2024-03-02T02:36:30;20.20;62.90
27016;DHT22;14557;0.000;0.000;2024-03-02T02:38:56;20.20;62.90
27016;DHT22;14557;0.000;0.000;2024-03-02T02:41:21;20.20;62.90
27016;DHT22;14557;0.000;0.000;2024-03-02T02:43:47;20.20;62.90
27016;DHT22;14557;0.000;0.000;2024-03-02T02:46:13;20.20;63.00
27016;DHT22;14557;0.000;0.000;2024-03-02T02:48:38;20.10;63.00
27016;DHT22;14557;0.000;0.000;2024-03-02T02:51:04;20.10;63.10
27016;DHT22;14557;0.000;0.000;2024-03-02T02:53:30;20.10;62.80
27016;DHT22;14557;0.000;0.000;2024-03-02T02:55:55;20.10;62.80
27016;DHT22;14557;0.000;0.000;2024-03-02T02:58:21;20.10;62.80
27016;DHT22;14557;0.000;0.000;2024-03-02T03:00:46;20.10;62.80
27016;DHT22;14557;0.000;0.000;2024-03-02T03:03:12;20.00;62.90
27016;DHT22;14557;0.000;0.000;2024-03-02T03:05:37;20.00;62.80
27016;DHT22;14557;0.000;0.000;2024-03-02T03:08:03;20.00;62.70
27016;DHT22;14557;0.000;0.000;2024-03-02T03:10:29;20.00;62.80
27016;DHT22;14557;0.000;0.000;2024-03-02T03:12:54;20.00;63.50
27016;DHT22;14557;0.000;0.000;2024-03-02T03:15:21;20.00;62.80
27016;DHT22;14557;0.000;0.000;2024-03-02T03:17:47;20.00;62.80
27016;DHT22;14557;0.000;0.000;2024-03-02T03:20:12;20.00;62.90
27016;DHT22;14557;0.000;0.000;2024-03-02T03:22:39;20.00;62.90
27016;DHT22;14557;0.000;0.000;2024-03-02T03:25:05;20.00;62.80
27016;DHT22;14557;0.000;0.000;2024-03-02T03:27:30;20.00;62.70
27016;DHT22;14557;0.000;0.000;2024-03-02T03:29:56;19.90;62.70
27016;DHT22;14557;0.000;0.000;2024-03-02T03:32:22;20.00;62.70
27016;DHT22;14557;0.000;0.000;2024-03-02T03:34:47;19.90;62.70
27016;DHT22;14557;0.000;0.000;2024-03-02T03:37:14;19.90;62.70
27016;DHT22;14557;0.000;0.000;2024-03-02T03:39:39;19.90;62.70
27016;DHT22;14557;0.000;0.000;2024-03-02T03:42:05;19.90;62.70
27016;DHT22;14557;0.000;0.000;2024-03-02T03:44:31;19.80;62.60
27016;DHT22;14557;0.000;0.000;2024-03-02T03:46:57;19.90;62.70
27016;DHT22;14557;0.000;0.000;2024-03-02T03:49:22;19.80;62.60
27016;DHT22;14557;0.000;0.000;2024-03-02T03:51:48;19.80;62.60
27016;DHT22;14557;0.000;0.000;2024-03-02T03:54:13;19.80;62.70
27016;DHT22;14557;0.000;0.000;2024-03-02T03:56:39;19.80;62.60
27016;DHT22;14557;0.000;0.000;2024-03-02T03:59:05;19.80;62.60
27016;DHT22;14557;0.000;0.000;2024-03-02T04:01:30;19.80;62.70
27016;DHT22;14557;0.000;0.000;2024-03-02T04:03:57;19.80;62.70
27016;DHT22;14557;0.000;0.000;2024-03-02T04:06:23;19.80;62.60
27016;DHT22;14557;0.000;0.000;2024-03-02T04:08:48;19.80;62.70
27016;DHT22;14557;0.000;0.000;2024-03-02T04:11:14;19.80;62.60
27016;DHT22;14557;0.000;0.000;2024-03-02T04:13:39;19.70;62.60
27016;DHT22;14557;0.000;0.000;2024-03-02T04:16:05;19.70;62.40
27016;DHT22;14557;0.000;0.000;2024-03-02T04:18:31;19.70;62.50
27016;DHT22;14557;0.000;0.000;2024-03-02T04:20:57;19.60;62.40
27016;DHT22;14557;0.000;0.000;2024-03-02T04:23:27;19.70;62.30
27016;DHT22;14557;0.000;0.000;2024-03-02T04:25:53;19.70;62.00
27016;DHT22;14557;0.000;0.000;2024-03-02T04:28:18;19.70;61.90
27016;DHT22;14557;0.000;0.000;2024-03-02T04:30:44;19.70;61.80
27016;DHT22;14557;0.000;0.000;2024-03-02T04:33:09;19.70;61.70
27016;DHT22;14557;0.000;0.000;2024-03-02T04:35:35;19.60;61.70
27016;DHT22;14557;0.000;0.000;2024-03-02T04:38:01;19.60;61.60
27016;DHT22;14557;0.000;0.000;2024-03-02T04:40:27;19.60;61.60
27016;DHT22;14557;0.000;0.000;2024-03-02T04:42:52;19.60;61.60
27016;DHT22;14557;0.000;0.000;2024-03-02T04:45:18;19.60;61.60
27016;DHT22;14557;0.000;0.000;2024-03-02T04:47:44;19.60;61.60
27016;DHT22;14557;0.000;0.000;2024-03-02T04:50:09;19.60;61.60
27016;DHT22;14557;0.000;0.000;2024-03-02T04:52:35;19.50;61.60
27016;DHT22;14557;0.000;0.000;2024-03-02T04:55:01;19.60;61.60
27016;DHT22;14557;0.000;0.000;2024-03-02T04:57:50;19.60;61.60
27016;DHT22;14557;0.000;0.000;2024-03-02T05:00:16;19.60;61.50
27016;DHT22;14557;0.000;0.000;2024-03-02T05:02:42;19.60;61.60
27016;DHT22;14557;0.000;0.000;2024-03-02T05:05:08;19.60;61.60
27016;DHT22;14557;0.000;0.000;2024-03-02T05:07:33;19.60;61.50
27016;DHT22;14557;0.000;0.000;2024-03-02T05:09:59;19.50;61.50
27016;DHT22;14557;0.000;0.000;2024-03-02T05:12:25;19.50;61.40
27016;DHT22;14557;0.000;0.000;2024-03-02T05:15:09;19.50;61.40
27016;DHT22;14557;0.000;0.000;2024-03-02T05:17:38;19.50;61.40
27016;DHT22;14557;0.000;0.000;2024-03-02T05:20:04;19.50;61.40
27016;DHT22;14557;0.000;0.000;2024-03-02T05:22:30;19.50;61.30
27016;DHT22;14557;0.000;0.000;2024-03-02T05:24:56;19.50;61.30
27016;DHT22;14557;0.000;0.000;2024-03-02T05:27:22;19.50;61.30
27016;DHT22;14557;0.000;0.000;2024-03-02T05:29:47;19.50;61.20
27016;DHT22;14557;0.000;0.000;2024-03-02T05:32:13;19.40;61.20
27016;DHT22;14557;0.000;0.000;2024-03-02T05:34:39;19.40;61.20
27016;DHT22;14557;0.000;0.000;2024-03-02T05:37:04;19.40;61.10
27016;DHT22;14557;0.000;0.000;2024-03-02T05:39:30;19.40;61.10
27016;DHT22;14557;0.000;0.000;2024-03-02T05:41:55;19.40;61.00
27016;DHT22;14557;0.000;0.000;2024-03-02T05:44:21;19.40;61.10
27016;DHT22;14557;0.000;0.000;2024-03-02T05:46:47;19.40;61.00
27016;DHT22;14557;0.000;0.000;2024-03-02T05:49:13;19.40;61.00
27016;DHT22;14557;0.000;0.000;2024-03-02T05:51:38;19.40;61.00
27016;DHT22;14557;0.000;0.000;2024-03-02T05:54:04;19.40;61.00
27016;DHT22;14557;0.000;0.000;2024-03-02T05:56:30;19.40;61.00
27016;DHT22;14557;0.000;0.000;2024-03-02T05:58:55;19.40;60.90
27016;DHT22;14557;0.000;0.000;2024-03-02T06:01:39;19.30;60.80
27016;DHT22;14557;0.000;0.000;2024-03-02T06:04:05;19.30;60.80
27016;DHT22;14557;0.000;0.000;2024-03-02T06:06:31;19.30;60.80
27016;DHT22;14557;0.000;0.000;2024-03-02T06:09:02;19.30;60.80
27016;DHT22;14557;0.000;0.000;2024-03-02T06:11:33;19.30;60.80
27016;DHT22;14557;0.000;0.000;2024-03-02T06:13:59;19.30;60.80
27016;DHT22;14557;0.000;0.000;2024-03-02T06:16:25;19.30;60.70
27016;DHT22;14557;0.000;0.000;2024-03-02T06:18:50;19.30;60.70
27016;DHT22;14557;0.000;0.000;2024-03-02T06:21:16;19.30;60.70
27016;DHT22;14557;0.000;0.000;2024-03-02T06:23:44;19.30;60.70
27016;DHT22;14557;0.000;0.000;2024-03-02T06:26:09;19.30;60.60
27016;DHT22;14557;0.000;0.000;2024-03-02T06:28:35;19.30;60.50
27016;DHT22;14557;0.000;0.000;2024-03-02T06:31:01;19.20;60.40
27016;DHT22;14557;0.000;0.000;2024-03-02T06:33:27;19.20;60.50
27016;DHT22;14557;0.000;0.000;2024-03-02T06:35:53;19.20;60.40
27016;DHT22;14557;0.000;0.000;2024-03-02T06:38:19;19.20;60.40
27016;DHT22;14557;0.000;0.000;2024-03-02T06:40:45;19.20;60.40
27016;DHT22;14557;0.000;0.000;2024-03-02T06:43:11;19.20;60.40
27016;DHT22;14557;0.000;0.000;2024-03-02T06:45:36;19.20;60.40
27016;DHT22;14557;0.000;0.000;2024-03-02T06:48:02;19.20;60.30
27016;DHT22;14557;0.000;0.000;2024-03-02T06:50:27;19.20;60.30
27016;DHT22;14557;0.000;0.000;2024-03-02T06:52:54;19.20;60.40
27016;DHT22;14557;0.000;0.000;2024-03-02T06:55:21;19.20;60.30
27016;DHT22;14557;0.000;0.000;2024-03-02T06:57:47;19.20;60.10
27016;DHT22;14557;0.000;0.000;2024-03-02T07:00:13;19.20;60.90
27016;DHT22;14557;0.000;0.000;2024-03-02T07:02:39;19.20;60.20
27016;DHT22;14557;0.000;0.000;2024-03-02T07:05:07;19.20;60.50
27016;DHT22;14557;0.000;0.000;2024-03-02T07:07:33;19.20;60.60
27016;DHT22;14557;0.000;0.000;2024-03-02T07:10:00;19.20;60.40
27016;DHT22;14557;0.000;0.000;2024-03-02T07:12:26;19.20;60.30
27016;DHT22;14557;0.000;0.000;2024-03-02T07:14:52;19.20;60.30
27016;DHT22;14557;0.000;0.000;2024-03-02T07:17:29;19.20;60.20
27016;DHT22;14557;0.000;0.000;2024-03-02T07:19:56;19.20;60.20
27016;DHT22;14557;0.000;0.000;2024-03-02T07:22:22;19.20;60.20
27016;DHT22;14557;0.000;0.000;2024-03-02T07:24:48;19.20;60.20
27016;DHT22;14557;0.000;0.000;2024-03-02T07:27:14;19.20;60.20
27016;DHT22;14557;0.000;0.000;2024-03-02T07:29:41;19.20;63.60
27016;DHT22;14557;0.000;0.000;2024-03-02T07:32:07;19.20;62.60
27016;DHT22;14557;0.000;0.000;2024-03-02T07:34:33;19.20;62.30
27016;DHT22;14557;0.000;0.000;2024-03-02T07:36:58;19.20;63.00
27016;DHT22;14557;0.000;0.000;2024-03-02T07:39:24;19.30;63.30
27016;DHT22;14557;0.000;0.000;2024-03-02T07:41:49;19.50;65.10
27016;DHT22;14557;0.000;0.000;2024-03-02T07:44:15;19.60;63.80
27016;DHT22;14557;0.000;0.000;2024-03-02T07:46:41;19.60;62.30
27016;DHT22;14557;0.000;0.000;2024-03-02T07:49:08;19.60;61.20
27016;DHT22;14557;0.000;0.000;2024-03-02T07:51:33;19.60;61.00
27016;DHT22;14557;0.000;0.000;2024-03-02T07:53:59;19.50;60.90
27016;DHT22;14557;0.000;0.000;2024-03-02T07:56:24;19.50;60.60
27016;DHT22;14557;0.000;0.000;2024-03-02T07:58:50;19.50;60.50
27016;DHT22;14557;0.000;0.000;2024-03-02T08:01:16;19.40;60.30
27016;DHT22;14557;0.000;0.000;2024-03-02T08:03:42;19.40;60.50
27016;DHT22;14557;0.000;0.000;2024-03-02T08:06:08;19.40;60.70
27016;DHT22;14557;0.000;0.000;2024-03-02T08:08:34;19.60;63.70
27016;DHT22;14557;0.000;0.000;2024-03-02T08:10:59;19.40;64.60
27016;DHT22;14557;0.000;0.000;2024-03-02T08:13:25;19.50;64.20
27016;DHT22;14557;0.000;0.000;2024-03-02T08:15:51;19.50;63.00
27016;DHT22;14557;0.000;0.000;2024-03-02T08:18:16;19.50;62.60
27016;DHT22;14557;0.000;0.000;2024-03-02T08:20:42;19.50;62.40
27016;DHT22;14557;0.000;0.000;2024-03-02T08:23:08;19.50;63.00
27016;DHT22;14557;0.000;0.000;2024-03-02T08:25:33;19.60;63.20
27016;DHT22;14557;0.000;0.000;2024-03-02T08:27:59;19.50;63.00
27016;DHT22;14557;0.000;0.000;2024-03-02T08:30:24;19.50;62.20
27016;DHT22;14557;0.000;0.000;2024-03-02T08:32:50;19.50;62.00
27016;DHT22;14557;0.000;0.000;2024-03-02T08:35:16;19.50;62.30
27016;DHT22;14557;0.000;0.000;2024-03-02T08:37:42;19.50;68.10
27016;DHT22;14557;0.000;0.000;2024-03-02T08:40:09;19.50;67.80
27016;DHT22;14557;0.000;0.000;2024-03-02T08:42:34;19.40;65.40
27016;DHT22;14557;0.000;0.000;2024-03-02T08:45:00;19.50;64.30
27016;DHT22;14557;0.000;0.000;2024-03-02T08:47:28;19.50;63.60
27016;DHT22;14557;0.000;0.000;2024-03-02T08:49:54;19.50;63.00
27016;DHT22;14557;0.000;0.000;2024-03-02T08:52:20;19.50;62.60
27016;DHT22;14557;0.000;0.000;2024-03-02T08:54:45;19.50;62.30
27016;DHT22;14557;0.000;0.000;2024-03-02T08:57:11;19.50;62.00
27016;DHT22;14557;0.000;0.000;2024-03-02T08:59:36;19.50;61.90
27016;DHT22;14557;0.000;0.000;2024-03-02T09:02:02;19.50;61.70
27016;DHT22;14557;0.000;0.000;2024-03-02T09:04:28;19.50;61.40
27016;DHT22;14557;0.000;0.000;2024-03-02T09:06:54;19.50;62.70
27016;DHT22;14557;0.000;0.000;2024-03-02T09:09:19;19.50;63.30
27016;DHT22;14557;0.000;0.000;2024-03-02T09:11:45;19.50;62.50
27016;DHT22;14557;0.000;0.000;2024-03-02T09:14:11;19.50;62.10
27016;DHT22;14557;0.000;0.000;2024-03-02T09:16:37;19.50;61.80
27016;DHT22;14557;0.000;0.000;2024-03-02T09:19:03;19.50;61.60
27016;DHT22;14557;0.000;0.000;2024-03-02T09:21:29;19.50;61.50
27016;DHT22;14557;0.000;0.000;2024-03-02T09:23:55;19.50;61.30
27016;DHT22;14557;0.000;0.000;2024-03-02T09:26:22;19.50;61.20
27016;DHT22;14557;0.000;0.000;2024-03-02T09:28:47;19.50;61.10
27016;DHT22;14557;0.000;0.000;2024-03-02T09:31:13;19.50;60.90
27016;DHT22;14557;0.000;0.000;2024-03-02T09:33:39;19.50;60.80
27016;DHT22;14557;0.000;0.000;2024-03-02T09:36:04;19.50;60.70
27016;DHT22;14557;0.000;0.000;2024-03-02T09:38:33;19.50;60.60
27016;DHT22;14557;0.000;0.000;2024-03-02T09:40:59;19.50;60.50
27016;DHT22;14557;0.000;0.000;2024-03-02T09:43:25;19.50;60.50
27016;DHT22;14557;0.000;0.000;2024-03-02T09:45:51;19.50;60.40
27016;DHT22;14557;0.000;0.000;2024-03-02T09:48:17;19.50;60.20
27016;DHT22;14557;0.000;0.000;2024-03-02T09:50:45;19.50;60.10
27016;DHT22;14557;0.000;0.000;2024-03-02T09:53:11;19.50;60.00
27016;DHT22;14557;0.000;0.000;2024-03-02T09:55:37;19.50;59.90
27016;DHT22;14557;0.000;0.000;2024-03-02T09:58:04;19.50;59.90
27016;DHT22;14557;0.000;0.000;2024-03-02T10:00:29;19.50;60.00
27016;DHT22;14557;0.000;0.000;2024-03-02T10:02:55;19.60;60.30
27016;DHT22;14557;0.000;0.000;2024-03-02T10:05:27;19.60;60.10
27016;DHT22;14557;0.000;0.000;2024-03-02T10:08:00;19.60;59.90
27016;DHT22;14557;0.000;0.000;2024-03-02T10:10:34;19.60;59.80
27016;DHT22;14557;0.000;0.000;2024-03-02T10:13:09;19.50;59.70
27016;DHT22;14557;0.000;0.000;2024-03-02T10:15:35;19.60;59.80
27016;DHT22;14557;0.000;0.000;2024-03-02T10:18:03;19.60;59.60
27016;DHT22;14557;0.000;0.000;2024-03-02T10:20:28;19.60;59.90
27016;DHT22;14557;0.000;0.000;2024-03-02T10:22:55;19.70;60.20
27016;DHT22;14557;0.000;0.000;2024-03-02T10:25:30;19.70;59.50
27016;DHT22;14557;0.000;0.000;2024-03-02T10:27:59;19.70;59.70
27016;DHT22;14557;0.000;0.000;2024-03-02T10:30:28;19.70;59.50
27016;DHT22;14557;0.000;0.000;2024-03-02T10:32:54;19.70;62.10
27016;DHT22;14557;0.000;0.000;2024-03-02T10:35:21;19.70;60.10
27016;DHT22;14557;0.000;0.000;2024-03-02T10:37:49;19.80;60.70
27016;DHT22;14557;0.000;0.000;2024-03-02T10:40:15;19.80;60.70
27016;DHT22;14557;0.000;0.000;2024-03-02T10:42:41;19.80;60.60
27016;DHT22;14557;0.000;0.000;2024-03-02T10:45:07;19.80;60.30
27016;DHT22;14557;0.000;0.000;2024-03-02T10:47:34;19.80;60.00
27016;DHT22;14557;0.000;0.000;2024-03-02T10:50:01;19.90;59.80
27016;DHT22;14557;0.000;0.000;2024-03-02T10:52:29;19.80;59.50
27016;DHT22;14557;0.000;0.000;2024-03-02T10:54:54;19.90;57.20
27016;DHT22;14557;0.000;0.000;2024-03-02T10:57:21;19.90;56.90
27016;DHT22;14557;0.000;0.000;2024-03-02T10:59:52;19.90;59.10
27016;DHT22;14557;0.000;0.000;2024-03-02T11:02:18;19.90;59.70
27016;DHT22;14557;0.000;0.000;2024-03-02T11:04:45;20.00;59.10
27016;DHT22;14557;0.000;0.000;2024-03-02T11:07:13;20.00;59.00
27016;DHT22;14557;0.000;0.000;2024-03-02T11:09:40;20.10;64.10
27016;DHT22;14557;0.000;0.000;2024-03-02T11:12:09;20.20;60.90
27016;DHT22;14557;0.000;0.000;2024-03-02T11:14:37;20.20;59.60
27016;DHT22;14557;0.000;0.000;2024-03-02T11:17:05;20.20;58.10
27016;DHT22;14557;0.000;0.000;2024-03-02T11:19:32;20.30;57.30
27016;DHT22;14557;0.000;0.000;2024-03-02T11:21:58;20.30;56.90
27016;DHT22;14557;0.000;0.000;2024-03-02T11:26:50;20.40;57.80
27016;DHT22;14557;0.000;0.000;2024-03-02T11:32:02;20.50;57.20
27016;DHT22;14557;0.000;0.000;2024-03-02T11:34:28;20.50;56.70
27016;DHT22;14557;0.000;0.000;2024-03-02T11:36:54;20.60;56.50
27016;DHT22;14557;0.000;0.000;2024-03-02T11:39:20;20.70;56.20
27016;DHT22;14557;0.000;0.000;2024-03-02T11:41:46;20.70;56.00
27016;DHT22;14557;0.000;0.000;2024-03-02T11:44:11;20.80;55.90
27016;DHT22;14557;0.000;0.000;2024-03-02T11:46:39;20.80;55.70
27016;DHT22;14557;0.000;0.000;2024-03-02T11:49:05;20.90;55.50
27016;DHT22;14557;0.000;0.000;2024-03-02T11:51:32;20.90;55.50
27016;DHT22;14557;0.000;0.000;2024-03-02T11:53:58;21.00;55.30
27016;DHT22;14557;0.000;0.000;2024-03-02T11:56:25;21.00;55.10
27016;DHT22;14557;0.000;0.000;2024-03-02T11:58:53;21.10;54.90
27016;DHT22;14557;0.000;0.000;2024-03-02T12:01:19;21.10;54.80
27016;DHT22;14557;0.000;0.000;2024-03-02T12:03:45;21.20;54.70
27016;DHT22;14557;0.000;0.000;2024-03-02T12:06:11;21.20;54.50
27016;DHT22;14557;0.000;0.000;2024-03-02T12:08:38;21.30;54.50
27016;DHT22;14557;0.000;0.000;2024-03-02T12:11:04;21.30;54.30
27016;DHT22;14557;0.000;0.000;2024-03-02T12:13:31;21.30;54.10
27016;DHT22;14557;0.000;0.000;2024-03-02T12:15:58;21.40;54.10
27016;DHT22;14557;0.000;0.000;2024-03-02T12:18:24;21.40;53.80
27016;DHT22;14557;0.000;0.000;2024-03-02T12:20:50;21.50;53.80
27016;DHT22;14557;0.000;0.000;2024-03-02T12:23:21;21.50;53.80
27016;DHT22;14557;0.000;0.000;2024-03-02T12:25:47;21.50;53.40
27016;DHT22;14557;0.000;0.000;2024-03-02T12:28:13;21.40;53.30
27016;DHT22;14557;0.000;0.000;2024-03-02T12:30:39;21.40;53.30
27016;DHT22;14557;0.000;0.000;2024-03-02T12:33:05;21.40;53.50
27016;DHT22;14557;0.000;0.000;2024-03-02T12:35:30;21.30;53.50
27016;DHT22;14557;0.000;0.000;2024-03-02T12:37:57;21.30;53.40
27016;DHT22;14557;0.000;0.000;2024-03-02T12:40:23;21.30;53.40
27016;DHT22;14557;0.000;0.000;2024-03-02T12:42:49;21.30;53.50
27016;DHT22;14557;0.000;0.000;2024-03-02T12:45:15;21.30;53.70
27016;DHT22;14557;0.000;0.000;2024-03-02T12:47:42;21.30;53.70
27016;DHT22;14557;0.000;0.000;2024-03-02T12:50:08;21.30;53.80
27016;DHT22;14557;0.000;0.000;2024-03-02T12:52:34;21.30;53.80
27016;DHT22;14557;0.000;0.000;2024-03-02T12:55:00;21.30;53.70
27016;DHT22;14557;0.000;0.000;2024-03-02T12:57:26;21.30;53.80
27016;DHT22;14557;0.000;0.000;2024-03-02T13:00:02;21.30;53.90
27016;DHT22;14557;0.000;0.000;2024-03-02T13:02:34;21.30;53.80
27016;DHT22;14557;0.000;0.000;2024-03-02T13:05:00;21.30;53.80
27016;DHT22;14557;0.000;0.000;2024-03-02T13:07:26;21.30;54.00
27016;DHT22;14557;0.000;0.000;2024-03-02T13:09:52;21.30;54.90
27016;DHT22;14557;0.000;0.000;2024-03-02T13:12:19;21.30;54.60
27016;DHT22;14557;0.000;0.000;2024-03-02T13:14:47;21.20;54.40
27016;DHT22;14557;0.000;0.000;2024-03-02T13:17:13;21.20;54.20
27016;DHT22;14557;0.000;0.000;2024-03-02T13:19:58;21.20;54.20
27016;DHT22;14557;0.000;0.000;2024-03-02T13:22:24;21.20;54.10
27016;DHT22;14557;0.000;0.000;2024-03-02T13:24:50;21.20;54.00
27016;DHT22;14557;0.000;0.000;2024-03-02T13:27:16;21.20;54.00
27016;DHT22;14557;0.000;0.000;2024-03-02T13:29:45;21.20;54.00
27016;DHT22;14557;0.000;0.000;2024-03-02T13:32:11;21.20;53.90
27016;DHT22;14557;0.000;0.000;2024-03-02T13:34:37;21.20;54.00
27016;DHT22;14557;0.000;0.000;2024-03-02T13:37:03;21.20;54.50
27016;DHT22;14557;0.000;0.000;2024-03-02T13:39:29;21.20;53.90
27016;DHT22;14557;0.000;0.000;2024-03-02T13:41:57;21.20;53.90
27016;DHT22;14557;0.000;0.000;2024-03-02T13:44:29;21.20;53.90
27016;DHT22;14557;0.000;0.000;2024-03-02T13:46:55;21.30;53.90
27016;DHT22;14557;0.000;0.000;2024-03-02T13:49:20;21.30;53.80
27016;DHT22;14557;0.000;0.000;2024-03-02T13:51:46;21.30;53.50
27016;DHT22;14557;0.000;0.000;2024-03-02T13:54:11;21.40;53.40
27016;DHT22;14557;0.000;0.000;2024-03-02T13:56:37;21.40;53.30
27016;DHT22;14557;0.000;0.000;2024-03-02T13:59:05;21.40;53.30
27016;DHT22;14557;0.000;0.000;2024-03-02T14:01:31;21.40;53.20
27016;DHT22;14557;0.000;0.000;2024-03-02T14:03:58;21.40;53.20
27016;DHT22;14557;0.000;0.000;2024-03-02T14:06:23;21.50;53.20
27016;DHT22;14557;0.000;0.000;2024-03-02T14:08:51;21.50;53.10
27016;DHT22;14557;0.000;0.000;2024-03-02T14:11:17;21.50;53.20
27016;DHT22;14557;0.000;0.000;2024-03-02T14:13:43;21.50;53.10
27016;DHT22;14557;0.000;0.000;2024-03-02T14:16:10;21.50;53.00
27016;DHT22;14557;0.000;0.000;2024-03-02T14:18:35;21.50;53.00
27016;DHT22;14557;0.000;0.000;2024-03-02T14:21:01;21.50;53.10
27016;DHT22;14557;0.000;0.000;2024-03-02T14:23:27;21.60;53.30
27016;DHT22;14557;0.000;0.000;2024-03-02T14:25:55;21.60;53.30
27016;DHT22;14557;0.000;0.000;2024-03-02T14:28:20;21.50;52.90
27016;DHT22;14557;0.000;0.000;2024-03-02T14:30:46;21.60;53.10
27016;DHT22;14557;0.000;0.000;2024-03-02T14:33:12;21.60;53.00
27016;DHT22;14557;0.000;0.000;2024-03-02T14:35:39;21.50;53.00
27016;DHT22;14557;0.000;0.000;2024-03-02T14:38:04;21.60;53.10
27016;DHT22;14557;0.000;0.000;2024-03-02T14:40:30;21.60;53.00
27016;DHT22;14557;0.000;0.000;2024-03-02T14:42:56;21.60;52.90
27016;DHT22;14557;0.000;0.000;2024-03-02T14:45:22;21.60;53.00
27016;DHT22;14557;0.000;0.000;2024-03-02T14:47:49;21.60;52.90
27016;DHT22;14557;0.000;0.000;2024-03-02T14:50:14;21.60;52.90
27016;DHT22;14557;0.000;0.000;2024-03-02T14:52:41;21.60;52.90
27016;DHT22;14557;0.000;0.000;2024-03-02T14:55:07;21.60;52.80
27016;DHT22;14557;0.000;0.000;2024-03-02T14:57:33;21.60;52.70
27016;DHT22;14557;0.000;0.000;2024-03-02T14:59:58;21.60;52.70
27016;DHT22;14557;0.000;0.000;2024-03-02T15:02:24;21.60;52.80
27016;DHT22;14557;0.000;0.000;2024-03-02T15:04:50;21.60;53.10
27016;DHT22;14557;0.000;0.000;2024-03-02T15:07:16;21.60;52.70
27016;DHT22;14557;0.000;0.000;2024-03-02T15:09:41;21.60;52.70
27016;DHT22;14557;0.000;0.000;2024-03-02T15:12:07;21.70;52.80
27016;DHT22;14557;0.000;0.000;2024-03-02T15:14:37;21.60;52.60
27016;DHT22;14557;0.000;0.000;2024-03-02T15:17:04;21.70;53.20
27016;DHT22;14557;0.000;0.000;2024-03-02T15:19:29;21.60;52.70
27016;DHT22;14557;0.000;0.000;2024-03-02T15:21:55;21.70;52.80
27016;DHT22;14557;0.000;0.000;2024-03-02T15:24:20;21.70;53.00
27016;DHT22;14557;0.000;0.000;2024-03-02T15:26:46;21.60;53.40
27016;DHT22;14557;0.000;0.000;2024-03-02T15:29:12;21.70;53.50
27016;DHT22;14557;0.000;0.000;2024-03-02T15:31:37;21.70;53.50
27016;DHT22;14557;0.000;0.000;2024-03-02T15:34:03;21.70;53.50
27016;DHT22;14557;0.000;0.000;2024-03-02T15:36:28;21.70;53.40
27016;DHT22;14557;0.000;0.000;2024-03-02T15:38:54;21.70;53.30
27016;DHT22;14557;0.000;0.000;2024-03-02T15:41:20;21.70;53.20
27016;DHT22;14557;0.000;0.000;2024-03-02T15:43:46;21.70;53.20